sensor_id;sensor_type;location;lat;lon;timestamp;noise_LAeq;noise_LA_min;noise_LA_max;noise_LA01;noise_LA95
18377;Laerm;9315;52.624;13.544;2023-06-22T00:00:13;35.38;31.52;44.93;;
18377;Laerm;9315;52.624;13.544;2023-06-22T00:02:40;36.52;31.82;43.00;;
18377;Laerm;9315;52.624;13.544;2023-06-22T00:05:08;53.66;32.87;70.62;;
18377;Laerm;9315;52.624;13.544;2023-06-22T00:07:35;56.68;33.85;74.86;;
18377;Laerm;9315;52.624;13.544;2023-06-22T00:10:02;53.62;32.38;71.50;;
18377;Laerm;9315;52.624;13.544;2023-06-22T00:12:29;39.10;33.59;54.54;;
18377;Laerm;9315;52.624;13.544;2023-06-22T00:14:57;57.60;31.87;77.26;;
18377;Laerm;9315;52.624;13.544;2023-06-22T00:17:24;35.37;31.41;46.40;;
18377;Laerm;9315;52.624;13.544;2023-06-22T00:19:51;53.86;31.69;72.47;;
18377;Laerm;9315;52.624;13.544;2023-06-22T00:22:21;55.66;33.96;72.25;;
18377;Laerm;9315;52.624;13.544;2023-06-22T00:24:56;54.88;32.06;73.43;;
18377;Laerm;9315;52.624;13.544;2023-06-22T00:27:23;51.05;32.61;70.73;;
18377;Laerm;9315;52.624;13.544;2023-06-22T00:29:51;49.16;32.66;64.12;;
18377;Laerm;9315;52.624;13.544;2023-06-22T00:32:18;53.57;33.52;71.84;;
18377;Laerm;9315;52.624;13.544;2023-06-22T00:34:45;53.76;33.29;70.86;;
18377;Laerm;9315;52.624;13.544;2023-06-22T00:37:13;58.14;33.88;75.30;;
18377;Laerm;9315;52.624;13.544;2023-06-22T00:39:40;50.98;32.19;68.58;;
18377;Laerm;9315;52.624;13.544;2023-06-22T00:42:07;57.84;33.51;72.14;;
18377;Laerm;9315;52.624;13.544;2023-06-22T00:44:37;51.65;33.23;70.76;;
18377;Laerm;9315;52.624;13.544;2023-06-22T00:47:05;61.86;33.59;77.10;;
18377;Laerm;9315;52.624;13.544;2023-06-22T00:49:33;35.12;30.81;42.95;;
18377;Laerm;9315;52.624;13.544;2023-06-22T00:52:00;55.67;32.34;73.39;;
18377;Laerm;9315;52.624;13.544;2023-06-22T00:54:28;48.85;31.70;64.34;;
18377;Laerm;9315;52.624;13.544;2023-06-22T00:56:55;37.14;31.48;50.81;;
18377;Laerm;9315;52.624;13.544;2023-06-22T00:59:24;35.95;31.62;44.43;;
18377;Laerm;9315;52.624;13.544;2023-06-22T01:01:53;56.81;31.24;74.43;;
18377;Laerm;9315;52.624;13.544;2023-06-22T01:04:25;56.32;32.25;72.74;;
18377;Laerm;9315;52.624;13.544;2023-06-22T01:13:22;47.17;32.40;61.64;;
18377;Laerm;9315;52.624;13.544;2023-06-22T01:16:07;54.13;33.07;69.99;;
18377;Laerm;9315;52.624;13.544;2023-06-22T01:18:36;56.77;31.98;72.04;;
18377;Laerm;9315;52.624;13.544;2023-06-22T01:21:07;42.23;31.44;56.84;;
18377;Laerm;9315;52.624;13.544;2023-06-22T01:24:01;45.69;33.68;63.97;;
18377;Laerm;9315;52.624;13.544;2023-06-22T01:29:21;56.64;33.42;72.25;;
18377;Laerm;9315;52.624;13.544;2023-06-22T01:31:50;54.13;31.90;75.34;;
18377;Laerm;9315;52.624;13.544;2023-06-22T01:34:18;56.09;32.15;71.31;;
18377;Laerm;9315;52.624;13.544;2023-06-22T01:36:46;62.32;35.15;76.98;;
18377;Laerm;9315;52.624;13.544;2023-06-22T01:39:14;52.97;34.67;71.40;;
18377;Laerm;9315;52.624;13.544;2023-06-22T01:41:42;59.60;37.10;76.26;;
18377;Laerm;9315;52.624;13.544;2023-06-22T01:44:11;56.53;37.92;73.64;;
18377;Laerm;9315;52.624;13.544;2023-06-22T01:46:41;62.10;36.48;79.00;;
18377;Laerm;9315;52.624;13.544;2023-06-22T01:49:11;59.75;35.38;78.70;;
18377;Laerm;9315;52.624;13.544;2023-06-22T01:51:39;57.39;35.43;74.34;;
18377;Laerm;9315;52.624;13.544;2023-06-22T01:54:07;57.89;35.99;73.80;;
18377;Laerm;9315;52.624;13.544;2023-06-22T01:56:35;54.87;36.94;72.13;;
18377;Laerm;9315;52.624;13.544;2023-06-22T01:59:34;55.61;36.48;76.42;;
18377;Laerm;9315;52.624;13.544;2023-06-22T02:02:10;57.95;37.80;75.69;;
18377;Laerm;9315;52.624;13.544;2023-06-22T02:04:46;63.39;38.55;76.43;;
18377;Laerm;9315;52.624;13.544;2023-06-22T02:07:17;57.01;40.54;71.26;;
18377;Laerm;9315;52.624;13.544;2023-06-22T02:09:48;53.99;38.21;70.15;;
18377;Laerm;9315;52.624;13.544;2023-06-22T02:12:22;58.63;37.95;74.61;;
18377;Laerm;9315;52.624;13.544;2023-06-22T02:14:51;61.27;40.80;73.71;;
18377;Laerm;9315;52.624;13.544;2023-06-22T02:17:22;56.32;39.90;70.27;;
18377;Laerm;9315;52.624;13.544;2023-06-22T02:19:50;65.53;40.38;80.32;;
18377;Laerm;9315;52.624;13.544;2023-06-22T02:22:17;63.71;40.98;78.86;;
18377;Laerm;9315;52.624;13.544;2023-06-22T02:24:44;56.58;39.56;71.49;;
18377;Laerm;9315;52.624;13.544;2023-06-22T02:27:12;59.08;39.57;71.90;;
18377;Laerm;9315;52.624;13.544;2023-06-22T02:29:39;61.79;43.91;73.42;;
18377;Laerm;9315;52.624;13.544;2023-06-22T02:32:07;65.52;39.78;80.07;;
18377;Laerm;9315;52.624;13.544;2023-06-22T02:34:35;61.93;39.14;75.64;;
18377;Laerm;9315;52.624;13.544;2023-06-22T02:37:03;65.61;39.45;76.90;;
18377;Laerm;9315;52.624;13.544;2023-06-22T02:39:31;62.87;41.46;77.70;;
18377;Laerm;9315;52.624;13.544;2023-06-22T02:41:59;61.11;39.39;73.13;;
18377;Laerm;9315;52.624;13.544;2023-06-22T02:44:26;62.55;38.77;75.42;;
18377;Laerm;9315;52.624;13.544;2023-06-22T02:46:53;64.56;40.74;76.63;;
18377;Laerm;9315;52.624;13.544;2023-06-22T02:49:21;64.33;40.28;78.64;;
18377;Laerm;9315;52.624;13.544;2023-06-22T02:51:49;63.80;41.37;76.65;;
18377;Laerm;9315;52.624;13.544;2023-06-22T02:54:16;56.08;38.91;71.49;;
18377;Laerm;9315;52.624;13.544;2023-06-22T02:56:43;65.91;41.46;81.97;;
18377;Laerm;9315;52.624;13.544;2023-06-22T02:59:11;64.89;41.77;75.87;;
18377;Laerm;9315;52.624;13.544;2023-06-22T03:01:38;67.21;40.23;83.49;;
18377;Laerm;9315;52.624;13.544;2023-06-22T03:04:09;63.47;40.28;76.87;;
18377;Laerm;9315;52.624;13.544;2023-06-22T03:06:36;65.35;41.92;75.06;;
18377;Laerm;9315;52.624;13.544;2023-06-22T03:09:05;65.18;41.95;79.13;;
18377;Laerm;9315;52.624;13.544;2023-06-22T03:11:33;64.89;42.90;76.56;;
18377;Laerm;9315;52.624;13.544;2023-06-22T03:14:01;66.57;43.55;78.10;;
18377;Laerm;9315;52.624;13.544;2023-06-22T03:16:29;66.92;42.40;79.47;;
18377;Laerm;9315;52.624;13.544;2023-06-22T03:18:56;64.75;42.37;76.81;;
18377;Laerm;9315;52.624;13.544;2023-06-22T03:21:25;68.36;43.16;79.33;;
18377;Laerm;9315;52.624;13.544;2023-06-22T03:23:52;64.25;42.41;76.53;;
18377;Laerm;9315;52.624;13.544;2023-06-22T03:26:20;66.80;42.61;75.61;;
18377;Laerm;9315;52.624;13.544;2023-06-22T03:28:47;65.17;44.17;77.80;;
18377;Laerm;9315;52.624;13.544;2023-06-22T03:31:14;66.61;43.58;76.57;;
18377;Laerm;9315;52.624;13.544;2023-06-22T03:33:41;64.62;43.25;77.15;;
18377;Laerm;9315;52.624;13.544;2023-06-22T03:36:08;66.91;45.88;79.54;;
18377;Laerm;9315;52.624;13.544;2023-06-22T03:38:36;64.44;44.19;74.33;;
18377;Laerm;9315;52.624;13.544;2023-06-22T03:41:03;65.55;44.61;73.23;;
18377;Laerm;9315;52.624;13.544;2023-06-22T03:43:30;65.49;43.54;76.18;;
18377;Laerm;9315;52.624;13.544;2023-06-22T03:45:57;68.29;46.39;81.37;;
18377;Laerm;9315;52.624;13.544;2023-06-22T03:48:24;84.60;47.79;105.70;;
18377;Laerm;9315;52.624;13.544;2023-06-22T03:50:51;68.10;47.25;79.35;;
18377;Laerm;9315;52.624;13.544;2023-06-22T03:53:18;68.81;44.86;83.79;;
18377;Laerm;9315;52.624;13.544;2023-06-22T03:55:53;66.52;42.18;78.77;;
18377;Laerm;9315;52.624;13.544;2023-06-22T03:58:21;67.73;43.25;80.89;;
18377;Laerm;9315;52.624;13.544;2023-06-22T04:00:51;67.47;44.31;79.42;;
18377;Laerm;9315;52.624;13.544;2023-06-22T04:03:19;65.71;42.40;77.09;;
18377;Laerm;9315;52.624;13.544;2023-06-22T04:05:47;67.53;41.58;77.47;;
18377;Laerm;9315;52.624;13.544;2023-06-22T04:08:15;66.79;41.81;76.98;;
18377;Laerm;9315;52.624;13.544;2023-06-22T04:10:42;68.21;42.64;79.85;;
18377;Laerm;9315;52.624;13.544;2023-06-22T04:13:12;67.31;43.51;76.69;;
18377;Laerm;9315;52.624;13.544;2023-06-22T04:15:40;69.53;45.11;80.49;;
18377;Laerm;9315;52.624;13.544;2023-06-22T04:18:07;67.82;46.73;77.86;;
18377;Laerm;9315;52.624;13.544;2023-06-22T04:20:37;67.71;49.19;77.42;;
18377;Laerm;9315;52.624;13.544;2023-06-22T04:23:04;70.23;54.55;82.27;;
18377;Laerm;9315;52.624;13.544;2023-06-22T04:25:31;69.81;54.48;80.60;;
18377;Laerm;9315;52.624;13.544;2023-06-22T04:27:58;68.67;47.05;81.84;;
18377;Laerm;9315;52.624;13.544;2023-06-22T04:30:25;70.08;47.33;80.63;;
18377;Laerm;9315;52.624;13.544;2023-06-22T04:32:53;71.58;48.84;83.34;;
18377;Laerm;9315;52.624;13.544;2023-06-22T04:35:25;69.80;47.38;79.57;;
18377;Laerm;9315;52.624;13.544;2023-06-22T04:37:53;69.23;45.09;79.28;;
18377;Laerm;9315;52.624;13.544;2023-06-22T04:40:25;68.98;47.56;80.20;;
18377;Laerm;9315;52.624;13.544;2023-06-22T04:42:53;68.54;45.43;81.83;;
18377;Laerm;9315;52.624;13.544;2023-06-22T04:45:21;68.36;44.02;82.30;;
18377;Laerm;9315;52.624;13.544;2023-06-22T04:47:49;86.31;46.04;105.98;;
18377;Laerm;9315;52.624;13.544;2023-06-22T04:50:16;68.80;45.68;77.62;;
18377;Laerm;9315;52.624;13.544;2023-06-22T04:52:44;68.21;44.26;77.19;;
18377;Laerm;9315;52.624;13.544;2023-06-22T04:55:12;66.93;45.79;76.27;;
18377;Laerm;9315;52.624;13.544;2023-06-22T04:57:46;70.07;43.03;80.87;;
18377;Laerm;9315;52.624;13.544;2023-06-22T05:00:20;69.43;45.39;81.97;;
18377;Laerm;9315;52.624;13.544;2023-06-22T05:02:50;70.46;49.89;81.94;;
18377;Laerm;9315;52.624;13.544;2023-06-22T05:05:17;65.29;40.96;77.69;;
18377;Laerm;9315;52.624;13.544;2023-06-22T05:07:46;70.16;43.39;78.52;;
18377;Laerm;9315;52.624;13.544;2023-06-22T05:10:19;68.69;49.99;77.97;;
18377;Laerm;9315;52.624;13.544;2023-06-22T05:12:46;68.90;41.23;81.16;;
18377;Laerm;9315;52.624;13.544;2023-06-22T05:15:14;72.03;48.70;86.05;;
18377;Laerm;9315;52.624;13.544;2023-06-22T05:17:42;69.12;44.08;78.27;;
18377;Laerm;9315;52.624;13.544;2023-06-22T05:20:15;69.04;43.48;77.90;;
18377;Laerm;9315;52.624;13.544;2023-06-22T05:22:45;68.85;47.60;78.22;;
18377;Laerm;9315;52.624;13.544;2023-06-22T05:25:13;68.96;45.24;82.91;;
18377;Laerm;9315;52.624;13.544;2023-06-22T05:27:40;79.39;46.11;100.31;;
18377;Laerm;9315;52.624;13.544;2023-06-22T05:30:09;70.33;44.43;80.37;;
18377;Laerm;9315;52.624;13.544;2023-06-22T05:32:36;68.70;47.43;80.95;;
18377;Laerm;9315;52.624;13.544;2023-06-22T05:35:04;67.11;44.24;78.13;;
18377;Laerm;9315;52.624;13.544;2023-06-22T05:37:32;70.64;44.59;83.90;;
18377;Laerm;9315;52.624;13.544;2023-06-22T05:39:59;67.75;47.46;76.59;;
18377;Laerm;9315;52.624;13.544;2023-06-22T05:42:27;68.48;42.80;80.81;;
18377;Laerm;9315;52.624;13.544;2023-06-22T05:44:54;69.92;52.85;79.39;;
18377;Laerm;9315;52.624;13.544;2023-06-22T05:47:22;66.18;43.03;77.75;;
18377;Laerm;9315;52.624;13.544;2023-06-22T05:49:50;67.92;45.36;80.34;;
18377;Laerm;9315;52.624;13.544;2023-06-22T05:52:17;69.49;49.95;82.48;;
18377;Laerm;9315;52.624;13.544;2023-06-22T05:54:44;70.09;44.25;81.74;;
18377;Laerm;9315;52.624;13.544;2023-06-22T05:57:12;68.47;48.87;77.75;;
18377;Laerm;9315;52.624;13.544;2023-06-22T05:59:39;69.39;43.26;80.50;;
18377;Laerm;9315;52.624;13.544;2023-06-22T06:02:06;69.72;47.62;79.08;;
18377;Laerm;9315;52.624;13.544;2023-06-22T06:04:34;83.68;47.34;106.67;;
18377;Laerm;9315;52.624;13.544;2023-06-22T06:07:01;69.20;48.80;80.09;;
18377;Laerm;9315;52.624;13.544;2023-06-22T06:09:28;86.29;47.79;106.98;;
18377;Laerm;9315;52.624;13.544;2023-06-22T06:11:56;67.89;45.93;77.29;;
18377;Laerm;9315;52.624;13.544;2023-06-22T06:14:25;68.33;46.45;77.98;;
18377;Laerm;9315;52.624;13.544;2023-06-22T06:16:52;70.25;47.26;79.24;;
18377;Laerm;9315;52.624;13.544;2023-06-22T06:19:21;69.77;42.21;80.60;;
18377;Laerm;9315;52.624;13.544;2023-06-22T06:21:48;68.35;45.05;77.04;;
18377;Laerm;9315;52.624;13.544;2023-06-22T06:24:16;68.67;45.90;85.48;;
18377;Laerm;9315;52.624;13.544;2023-06-22T06:26:43;69.54;46.17;79.79;;
18377;Laerm;9315;52.624;13.544;2023-06-22T06:29:10;68.40;42.53;77.77;;
18377;Laerm;9315;52.624;13.544;2023-06-22T06:31:38;69.31;45.76;78.28;;
18377;Laerm;9315;52.624;13.544;2023-06-22T06:34:05;68.11;42.27;76.81;;
18377;Laerm;9315;52.624;13.544;2023-06-22T06:36:32;70.42;42.59;82.22;;
18377;Laerm;9315;52.624;13.544;2023-06-22T06:38:59;67.95;45.31;78.73;;
18377;Laerm;9315;52.624;13.544;2023-06-22T06:41:26;68.27;46.45;80.19;;
18377;Laerm;9315;52.624;13.544;2023-06-22T06:43:54;68.15;41.38;79.05;;
18377;Laerm;9315;52.624;13.544;2023-06-22T06:46:21;66.75;43.96;80.71;;
18377;Laerm;9315;52.624;13.544;2023-06-22T06:48:53;68.05;39.53;77.89;;
18377;Laerm;9315;52.624;13.544;2023-06-22T06:51:20;66.52;43.41;79.11;;
18377;Laerm;9315;52.624;13.544;2023-06-22T06:53:47;67.68;43.89;78.82;;
18377;Laerm;9315;52.624;13.544;2023-06-22T06:56:14;66.77;42.17;77.27;;
18377;Laerm;9315;52.624;13.544;2023-06-22T06:58:42;68.95;40.99;86.90;;
18377;Laerm;9315;52.624;13.544;2023-06-22T07:01:09;68.35;41.95;80.45;;
18377;Laerm;9315;52.624;13.544;2023-06-22T07:03:37;69.26;42.79;84.23;;
18377;Laerm;9315;52.624;13.544;2023-06-22T07:06:04;68.31;39.70;78.85;;
18377;Laerm;9315;52.624;13.544;2023-06-22T07:08:31;69.19;44.13;80.42;;
18377;Laerm;9315;52.624;13.544;2023-06-22T07:10:58;68.70;46.81;83.77;;
18377;Laerm;9315;52.624;13.544;2023-06-22T07:13:26;68.44;41.63;80.66;;
18377;Laerm;9315;52.624;13.544;2023-06-22T07:15:55;69.13;45.52;80.37;;
18377;Laerm;9315;52.624;13.544;2023-06-22T07:18:23;66.99;38.41;74.90;;
18377;Laerm;9315;52.624;13.544;2023-06-22T07:20:50;69.93;40.35;81.93;;
18377;Laerm;9315;52.624;13.544;2023-06-22T07:23:17;68.01;42.73;87.72;;
18377;Laerm;9315;52.624;13.544;2023-06-22T07:25:45;69.38;48.80;81.38;;
18377;Laerm;9315;52.624;13.544;2023-06-22T07:28:12;66.17;41.37;80.76;;
18377;Laerm;9315;52.624;13.544;2023-06-22T07:30:40;67.28;39.62;76.43;;
18377;Laerm;9315;52.624;13.544;2023-06-22T07:33:07;68.47;46.12;78.96;;
18377;Laerm;9315;52.624;13.544;2023-06-22T07:35:36;66.84;41.24;88.17;;
18377;Laerm;9315;52.624;13.544;2023-06-22T07:38:03;69.20;39.19;80.76;;
18377;Laerm;9315;52.624;13.544;2023-06-22T07:40:32;68.47;41.81;79.78;;
18377;Laerm;9315;52.624;13.544;2023-06-22T07:43:01;69.39;41.85;80.23;;
18377;Laerm;9315;52.624;13.544;2023-06-22T07:45:28;67.05;43.13;80.07;;
18377;Laerm;9315;52.624;13.544;2023-06-22T07:47:58;70.31;44.18;83.09;;
18377;Laerm;9315;52.624;13.544;2023-06-22T07:50:25;67.66;44.87;78.49;;
18377;Laerm;9315;52.624;13.544;2023-06-22T07:52:53;67.32;39.56;78.41;;
18377;Laerm;9315;52.624;13.544;2023-06-22T07:55:21;67.49;45.21;75.71;;
18377;Laerm;9315;52.624;13.544;2023-06-22T07:57:49;69.67;45.04;82.49;;
18377;Laerm;9315;52.624;13.544;2023-06-22T08:00:19;67.47;44.75;77.09;;
18377;Laerm;9315;52.624;13.544;2023-06-22T08:02:47;67.61;43.59;80.16;;
18377;Laerm;9315;52.624;13.544;2023-06-22T08:05:15;67.95;44.30;79.12;;
18377;Laerm;9315;52.624;13.544;2023-06-22T08:08:00;68.87;39.73;81.22;;
18377;Laerm;9315;52.624;13.544;2023-06-22T08:10:27;66.79;39.36;78.46;;
18377;Laerm;9315;52.624;13.544;2023-06-22T08:12:54;68.33;43.99;82.17;;
18377;Laerm;9315;52.624;13.544;2023-06-22T08:15:22;68.14;41.38;79.24;;
18377;Laerm;9315;52.624;13.544;2023-06-22T08:17:52;68.82;50.68;78.82;;
18377;Laerm;9315;52.624;13.544;2023-06-22T08:20:20;66.00;45.82;78.41;;
18377;Laerm;9315;52.624;13.544;2023-06-22T08:22:47;68.47;42.06;81.27;;
18377;Laerm;9315;52.624;13.544;2023-06-22T08:25:14;68.12;42.86;78.39;;
18377;Laerm;9315;52.624;13.544;2023-06-22T08:27:46;68.20;46.92;82.05;;
18377;Laerm;9315;52.624;13.544;2023-06-22T08:30:15;70.27;46.96;82.41;;
18377;Laerm;9315;52.624;13.544;2023-06-22T08:32:42;69.93;51.08;81.03;;
18377;Laerm;9315;52.624;13.544;2023-06-22T08:35:10;67.41;42.14;79.74;;
18377;Laerm;9315;52.624;13.544;2023-06-22T08:37:37;68.32;42.23;81.06;;
18377;Laerm;9315;52.624;13.544;2023-06-22T08:40:09;67.60;43.32;78.57;;
18377;Laerm;9315;52.624;13.544;2023-06-22T08:42:40;67.77;44.16;78.18;;
18377;Laerm;9315;52.624;13.544;2023-06-22T08:45:11;69.14;41.94;77.55;;
18377;Laerm;9315;52.624;13.544;2023-06-22T08:47:40;68.19;45.10;79.91;;
18377;Laerm;9315;52.624;13.544;2023-06-22T08:50:11;68.80;47.47;80.42;;
18377;Laerm;9315;52.624;13.544;2023-06-22T08:52:40;65.39;40.37;74.98;;
18377;Laerm;9315;52.624;13.544;2023-06-22T08:55:09;66.90;40.62;76.27;;
18377;Laerm;9315;52.624;13.544;2023-06-22T08:57:37;67.06;44.60;76.16;;
18377;Laerm;9315;52.624;13.544;2023-06-22T09:00:09;67.07;40.45;83.31;;
18377;Laerm;9315;52.624;13.544;2023-06-22T09:02:48;68.53;46.53;79.80;;
18377;Laerm;9315;52.624;13.544;2023-06-22T09:05:15;66.78;44.82;77.39;;
18377;Laerm;9315;52.624;13.544;2023-06-22T09:07:43;68.79;46.96;79.07;;
18377;Laerm;9315;52.624;13.544;2023-06-22T09:10:11;67.93;53.99;85.86;;
18377;Laerm;9315;52.624;13.544;2023-06-22T09:12:39;67.18;42.07;80.97;;
18377;Laerm;9315;52.624;13.544;2023-06-22T09:15:07;67.83;41.10;79.71;;
18377;Laerm;9315;52.624;13.544;2023-06-22T09:17:38;67.52;42.01;78.14;;
18377;Laerm;9315;52.624;13.544;2023-06-22T09:20:07;67.32;47.47;78.97;;
18377;Laerm;9315;52.624;13.544;2023-06-22T09:22:37;66.57;42.70;79.39;;
18377;Laerm;9315;52.624;13.544;2023-06-22T09:25:05;68.15;42.27;80.93;;
18377;Laerm;9315;52.624;13.544;2023-06-22T09:27:34;68.05;41.59;82.86;;
18377;Laerm;9315;52.624;13.544;2023-06-22T09:30:04;68.19;45.14;77.84;;
18377;Laerm;9315;52.624;13.544;2023-06-22T09:32:31;69.20;43.87;82.07;;
18377;Laerm;9315;52.624;13.544;2023-06-22T09:34:59;70.75;46.97;84.75;;
18377;Laerm;9315;52.624;13.544;2023-06-22T09:37:26;68.47;42.82;79.98;;
18377;Laerm;9315;52.624;13.544;2023-06-22T09:39:53;69.71;46.09;80.11;;
18377;Laerm;9315;52.624;13.544;2023-06-22T09:42:20;67.87;46.09;79.14;;
18377;Laerm;9315;52.624;13.544;2023-06-22T09:44:48;67.20;43.88;75.28;;
18377;Laerm;9315;52.624;13.544;2023-06-22T09:47:16;70.85;44.96;96.77;;
18377;Laerm;9315;52.624;13.544;2023-06-22T09:49:43;67.49;44.60;77.71;;
18377;Laerm;9315;52.624;13.544;2023-06-22T09:52:14;67.87;43.96;77.44;;
18377;Laerm;9315;52.624;13.544;2023-06-22T09:54:43;67.31;39.83;79.65;;
18377;Laerm;9315;52.624;13.544;2023-06-22T09:57:10;68.30;48.03;82.99;;
18377;Laerm;9315;52.624;13.544;2023-06-22T09:59:38;68.06;44.66;76.51;;
18377;Laerm;9315;52.624;13.544;2023-06-22T10:02:07;67.41;42.20;76.38;;
18377;Laerm;9315;52.624;13.544;2023-06-22T10:04:35;67.59;45.88;78.16;;
18377;Laerm;9315;52.624;13.544;2023-06-22T10:07:03;68.35;46.69;78.21;;
18377;Laerm;9315;52.624;13.544;2023-06-22T10:09:30;79.62;42.91;103.24;;
18377;Laerm;9315;52.624;13.544;2023-06-22T10:11:58;67.61;40.09;76.30;;
18377;Laerm;9315;52.624;13.544;2023-06-22T10:14:25;67.91;40.08;79.61;;
18377;Laerm;9315;52.624;13.544;2023-06-22T10:16:54;67.32;40.73;79.34;;
18377;Laerm;9315;52.624;13.544;2023-06-22T10:19:26;67.85;46.35;80.49;;
18377;Laerm;9315;52.624;13.544;2023-06-22T10:21:53;69.83;44.30;79.65;;
18377;Laerm;9315;52.624;13.544;2023-06-22T10:24:20;68.46;43.40;82.37;;
18377;Laerm;9315;52.624;13.544;2023-06-22T10:26:48;68.72;41.15;76.70;;
18377;Laerm;9315;52.624;13.544;2023-06-22T10:29:15;67.94;42.17;77.73;;
18377;Laerm;9315;52.624;13.544;2023-06-22T10:31:43;68.43;39.45;81.81;;
18377;Laerm;9315;52.624;13.544;2023-06-22T10:34:11;68.38;45.80;80.33;;
18377;Laerm;9315;52.624;13.544;2023-06-22T10:36:38;65.32;42.56;75.96;;
18377;Laerm;9315;52.624;13.544;2023-06-22T10:39:08;69.57;45.90;84.00;;
18377;Laerm;9315;52.624;13.544;2023-06-22T10:41:36;68.90;46.64;80.06;;
18377;Laerm;9315;52.624;13.544;2023-06-22T10:44:03;69.24;41.74;81.41;;
18377;Laerm;9315;52.624;13.544;2023-06-22T10:46:30;67.46;47.61;76.17;;
18377;Laerm;9315;52.624;13.544;2023-06-22T10:48:58;67.08;39.50;79.10;;
18377;Laerm;9315;52.624;13.544;2023-06-22T10:51:25;67.00;46.78;74.01;;
18377;Laerm;9315;52.624;13.544;2023-06-22T10:53:55;66.91;44.58;75.02;;
18377;Laerm;9315;52.624;13.544;2023-06-22T10:56:22;67.03;47.62;75.41;;
18377;Laerm;9315;52.624;13.544;2023-06-22T10:58:49;68.59;41.13;80.65;;
18377;Laerm;9315;52.624;13.544;2023-06-22T11:01:17;67.47;40.19;77.12;;
18377;Laerm;9315;52.624;13.544;2023-06-22T11:04:02;68.52;44.27;77.04;;
18377;Laerm;9315;52.624;13.544;2023-06-22T11:06:30;68.36;43.77;79.03;;
18377;Laerm;9315;52.624;13.544;2023-06-22T11:08:57;69.60;44.78;82.92;;
18377;Laerm;9315;52.624;13.544;2023-06-22T11:11:33;67.77;44.88;76.04;;
18377;Laerm;9315;52.624;13.544;2023-06-22T11:14:00;68.56;39.92;80.19;;
18377;Laerm;9315;52.624;13.544;2023-06-22T11:16:28;69.73;48.23;85.00;;
18377;Laerm;9315;52.624;13.544;2023-06-22T11:18:55;67.84;40.05;80.04;;
18377;Laerm;9315;52.624;13.544;2023-06-22T11:21:22;68.33;44.81;81.29;;
18377;Laerm;9315;52.624;13.544;2023-06-22T11:23:49;66.32;45.74;76.06;;
18377;Laerm;9315;52.624;13.544;2023-06-22T11:26:17;66.40;46.34;78.21;;
18377;Laerm;9315;52.624;13.544;2023-06-22T11:28:44;66.31;46.00;75.27;;
18377;Laerm;9315;52.624;13.544;2023-06-22T11:31:12;66.77;54.27;75.73;;
18377;Laerm;9315;52.624;13.544;2023-06-22T11:33:42;69.14;49.87;83.26;;
18377;Laerm;9315;52.624;13.544;2023-06-22T11:36:09;67.62;51.70;75.18;;
18377;Laerm;9315;52.624;13.544;2023-06-22T11:38:37;68.67;52.30;80.14;;
18377;Laerm;9315;52.624;13.544;2023-06-22T11:41:07;69.03;50.12;83.95;;
18377;Laerm;9315;52.624;13.544;2023-06-22T11:43:35;67.69;52.27;77.80;;
18377;Laerm;9315;52.624;13.544;2023-06-22T11:46:04;68.69;50.83;76.23;;
18377;Laerm;9315;52.624;13.544;2023-06-22T11:48:31;69.03;48.27;82.34;;
18377;Laerm;9315;52.624;13.544;2023-06-22T11:50:59;69.42;46.34;80.85;;
18377;Laerm;9315;52.624;13.544;2023-06-22T11:53:27;66.60;40.46;74.83;;
18377;Laerm;9315;52.624;13.544;2023-06-22T11:55:55;68.24;48.45;81.82;;
18377;Laerm;9315;52.624;13.544;2023-06-22T11:58:23;67.93;38.60;76.62;;
18377;Laerm;9315;52.624;13.544;2023-06-22T12:00:50;69.22;38.13;82.58;;
18377;Laerm;9315;52.624;13.544;2023-06-22T12:03:20;69.16;44.50;83.75;;
18377;Laerm;9315;52.624;13.544;2023-06-22T12:05:51;71.27;50.66;84.93;;
18377;Laerm;9315;52.624;13.544;2023-06-22T12:08:19;68.37;48.08;78.77;;
18377;Laerm;9315;52.624;13.544;2023-06-22T12:10:56;67.24;40.83;79.62;;
18377;Laerm;9315;52.624;13.544;2023-06-22T12:13:23;66.73;43.32;79.63;;
18377;Laerm;9315;52.624;13.544;2023-06-22T12:15:50;69.03;41.10;84.90;;
18377;Laerm;9315;52.624;13.544;2023-06-22T12:18:19;66.50;41.74;80.73;;
18377;Laerm;9315;52.624;13.544;2023-06-22T12:20:48;68.65;49.31;76.16;;
18377;Laerm;9315;52.624;13.544;2023-06-22T12:23:15;66.95;46.03;83.77;;
18377;Laerm;9315;52.624;13.544;2023-06-22T12:25:45;68.95;50.94;78.55;;
18377;Laerm;9315;52.624;13.544;2023-06-22T12:28:12;65.74;40.09;74.06;;
18377;Laerm;9315;52.624;13.544;2023-06-22T12:30:40;67.97;39.41;77.29;;
18377;Laerm;9315;52.624;13.544;2023-06-22T12:33:07;68.65;42.92;76.56;;
18377;Laerm;9315;52.624;13.544;2023-06-22T12:35:35;67.88;50.26;77.42;;
18377;Laerm;9315;52.624;13.544;2023-06-22T12:38:02;69.49;40.33;85.37;;
18377;Laerm;9315;52.624;13.544;2023-06-22T12:40:30;68.04;44.95;78.97;;
18377;Laerm;9315;52.624;13.544;2023-06-22T12:42:58;67.44;44.40;75.92;;
18377;Laerm;9315;52.624;13.544;2023-06-22T12:45:25;67.11;43.85;77.93;;
18377;Laerm;9315;52.624;13.544;2023-06-22T12:47:56;69.49;43.12;82.36;;
18377;Laerm;9315;52.624;13.544;2023-06-22T12:50:23;67.99;45.50;75.09;;
18377;Laerm;9315;52.624;13.544;2023-06-22T12:52:50;68.80;47.74;75.80;;
18377;Laerm;9315;52.624;13.544;2023-06-22T12:55:18;66.83;40.80;80.95;;
18377;Laerm;9315;52.624;13.544;2023-06-22T12:57:45;68.92;45.18;79.60;;
18377;Laerm;9315;52.624;13.544;2023-06-22T13:00:15;68.33;44.41;80.59;;
18377;Laerm;9315;52.624;13.544;2023-06-22T13:02:43;68.01;41.89;79.50;;
18377;Laerm;9315;52.624;13.544;2023-06-22T13:05:11;69.87;42.50;82.30;;
18377;Laerm;9315;52.624;13.544;2023-06-22T13:07:38;69.41;45.75;79.89;;
18377;Laerm;9315;52.624;13.544;2023-06-22T13:10:06;67.68;44.94;80.48;;
18377;Laerm;9315;52.624;13.544;2023-06-22T13:12:33;66.65;44.63;74.34;;
18377;Laerm;9315;52.624;13.544;2023-06-22T13:15:01;67.96;45.68;79.17;;
18377;Laerm;9315;52.624;13.544;2023-06-22T13:17:30;68.30;40.10;77.78;;
18377;Laerm;9315;52.624;13.544;2023-06-22T13:19:57;69.07;45.04;77.72;;
18377;Laerm;9315;52.624;13.544;2023-06-22T13:22:34;69.36;44.44;85.41;;
18377;Laerm;9315;52.624;13.544;2023-06-22T13:25:08;66.73;46.26;75.96;;
18377;Laerm;9315;52.624;13.544;2023-06-22T13:27:40;67.78;40.08;80.92;;
18377;Laerm;9315;52.624;13.544;2023-06-22T13:30:11;67.88;43.87;77.36;;
18377;Laerm;9315;52.624;13.544;2023-06-22T13:32:41;66.15;42.32;74.51;;
18377;Laerm;9315;52.624;13.544;2023-06-22T13:35:11;67.11;41.98;79.84;;
18377;Laerm;9315;52.624;13.544;2023-06-22T13:37:38;68.35;50.94;81.23;;
18377;Laerm;9315;52.624;13.544;2023-06-22T13:40:08;68.31;45.16;78.55;;
18377;Laerm;9315;52.624;13.544;2023-06-22T13:42:35;67.56;50.77;76.46;;
18377;Laerm;9315;52.624;13.544;2023-06-22T13:45:07;65.65;42.05;74.61;;
18377;Laerm;9315;52.624;13.544;2023-06-22T13:47:35;71.01;45.66;86.88;;
18377;Laerm;9315;52.624;13.544;2023-06-22T13:50:02;66.85;49.56;76.78;;
18377;Laerm;9315;52.624;13.544;2023-06-22T13:52:30;68.21;43.38;76.12;;
18377;Laerm;9315;52.624;13.544;2023-06-22T13:54:57;69.28;46.03;83.77;;
18377;Laerm;9315;52.624;13.544;2023-06-22T13:57:24;68.27;48.16;75.34;;
18377;Laerm;9315;52.624;13.544;2023-06-22T13:59:52;68.22;48.39;79.05;;